sensor_id;sensor_type;location;lat;lon;timestamp;pressure;altitude;pressure_sealevel;temperature;humidity
29569;BME280;16501;51.462;14.346;2023-02-13T00:02:04;102333.19;;;5.17;100.00
29569;BME280;16501;51.462;14.346;2023-02-13T00:04:29;102314.53;;;5.14;100.00
29569;BME280;16501;51.462;14.346;2023-02-13T00:06:54;102322.88;;;5.14;100.00
29569;BME280;16501;51.462;14.346;2023-02-13T00:09:21;102315.72;;;5.17;100.00
29569;BME280;16501;51.462;14.346;2023-02-13T00:11:48;102322.06;;;5.17;100.00
29569;BME280;16501;51.462;14.346;2023-02-13T00:14:13;102328.06;;;5.19;100.00
29569;BME280;16501;51.462;14.346;2023-02-13T00:16:39;102318.88;;;5.15;100.00
29569;BME280;16501;51.462;14.346;2023-02-13T00:19:04;102301.75;;;5.09;100.00
29569;BME280;16501;51.462;14.346;2023-02-13T00:21:29;102326.03;;;5.13;100.00
29569;BME280;16501;51.462;14.346;2023-02-13T00:23:56;102312.53;;;5.15;100.00
29569;BME280;16501;51.462;14.346;2023-02-13T00:26:21;102255.06;;;4.81;100.00
29569;BME280;16501;51.462;14.346;2023-02-13T00:28:47;102288.97;;;5.01;100.00
29569;BME280;16501;51.462;14.346;2023-02-13T00:31:15;102310.91;;;5.10;100.00
29569;BME280;16501;51.462;14.346;2023-02-13T00:33:40;102310.91;;;5.10;100.00
29569;BME280;16501;51.462;14.346;2023-02-13T00:36:08;102304.53;;;5.09;100.00
29569;BME280;16501;51.462;14.346;2023-02-13T00:38:35;102285.41;;;5.01;100.00
29569;BME280;16501;51.462;14.346;2023-02-13T00:41:03;102302.19;;;5.15;100.00
29569;BME280;16501;51.462;14.346;2023-02-13T00:43:29;102296.19;;;5.06;100.00
29569;BME280;16501;51.462;14.346;2023-02-13T00:45:54;102298.19;;;5.09;100.00
29569;BME280;16501;51.462;14.346;2023-02-13T00:48:19;102283.78;;;4.96;100.00
29569;BME280;16501;51.462;14.346;2023-02-13T00:50:46;102299.75;;;5.06;100.00
29569;BME280;16501;51.462;14.346;2023-02-13T00:53:12;102302.16;;;5.08;100.00
29569;BME280;16501;51.462;14.346;2023-02-13T00:55:37;102300.97;;;5.09;100.00
29569;BME280;16501;51.462;14.346;2023-02-13T00:58:03;102239.50;;;4.73;100.00
29569;BME280;16501;51.462;14.346;2023-02-13T01:00:28;102280.19;;;4.96;100.00
29569;BME280;16501;51.462;14.346;2023-02-13T01:02:54;102293.00;;;5.07;100.00
29569;BME280;16501;51.462;14.346;2023-02-13T01:05:19;102303.03;;;5.16;100.00
29569;BME280;16501;51.462;14.346;2023-02-13T01:07:44;102302.59;;;5.17;100.00
29569;BME280;16501;51.462;14.346;2023-02-13T01:10:10;102295.88;;;5.18;100.00
29569;BME280;16501;51.462;14.346;2023-02-13T01:12:35;102299.78;;;5.14;100.00
29569;BME280;16501;51.462;14.346;2023-02-13T01:15:01;102213.97;;;4.57;100.00
29569;BME280;16501;51.462;14.346;2023-02-13T01:17:26;102255.88;;;4.85;100.00
29569;BME280;16501;51.462;14.346;2023-02-13T01:19:54;102291.88;;;5.12;100.00
29569;BME280;16501;51.462;14.346;2023-02-13T01:22:19;102293.03;;;5.11;100.00
29569;BME280;16501;51.462;14.346;2023-02-13T01:24:44;102264.75;;;4.98;100.00
29569;BME280;16501;51.462;14.346;2023-02-13T01:27:10;102269.91;;;5.00;100.00
29569;BME280;16501;51.462;14.346;2023-02-13T01:29:36;102259.97;;;4.99;100.00
29569;BME280;16501;51.462;14.346;2023-02-13T01:32:02;102282.72;;;5.12;100.00
29569;BME280;16501;51.462;14.346;2023-02-13T01:34:30;102286.72;;;5.14;100.00
29569;BME280;16501;51.462;14.346;2023-02-13T01:36:55;102288.28;;;5.15;100.00
29569;BME280;16501;51.462;14.346;2023-02-13T01:39:20;102289.13;;;5.16;100.00
29569;BME280;16501;51.462;14.346;2023-02-13T01:41:45;102283.94;;;5.14;100.00
29569;BME280;16501;51.462;14.346;2023-02-13T01:47:17;102293.06;;;5.15;100.00
29569;BME280;16501;51.462;14.346;2023-02-13T01:50:07;102275.63;;;5.18;100.00
29569;BME280;16501;51.462;14.346;2023-02-13T01:52:37;102268.00;;;5.07;100.00
29569;BME280;16501;51.462;14.346;2023-02-13T01:55:05;102256.38;;;4.95;100.00
29569;BME280;16501;51.462;14.346;2023-02-13T01:57:32;102278.78;;;5.16;100.00
29569;BME280;16501;51.462;14.346;2023-02-13T02:00:09;102260.78;;;5.03;100.00
29569;BME280;16501;51.462;14.346;2023-02-13T02:02:38;102271.19;;;5.13;100.00
29569;BME280;16501;51.462;14.346;2023-02-13T02:05:05;102271.19;;;5.13;100.00
29569;BME280;16501;51.462;14.346;2023-02-13T02:07:32;102264.41;;;5.07;100.00
29569;BME280;16501;51.462;14.346;2023-02-13T02:10:07;102278.00;;;5.16;100.00
29569;BME280;16501;51.462;14.346;2023-02-13T02:12:44;102278.41;;;5.18;100.00
29569;BME280;16501;51.462;14.346;2023-02-13T02:15:12;102274.41;;;5.19;100.00
29569;BME280;16501;51.462;14.346;2023-02-13T02:17:37;102277.63;;;5.21;100.00
29569;BME280;16501;51.462;14.346;2023-02-13T02:31:03;102273.22;;;5.16;100.00
29569;BME280;16501;51.462;14.346;2023-02-13T02:36:46;102271.63;;;5.19;100.00
29569;BME280;16501;51.462;14.346;2023-02-13T02:39:54;102276.03;;;5.20;100.00
29569;BME280;16501;51.462;14.346;2023-02-13T02:45:10;102254.50;;;5.09;100.00
29569;BME280;16501;51.462;14.346;2023-02-13T02:47:47;102258.44;;;5.08;100.00
29569;BME280;16501;51.462;14.346;2023-02-13T02:51:08;102268.88;;;5.22;100.00
29569;BME280;16501;51.462;14.346;2023-02-13T02:56:45;102244.59;;;5.12;100.00
29569;BME280;16501;51.462;14.346;2023-02-13T02:59:14;102249.66;;;5.03;100.00
29569;BME280;16501;51.462;14.346;2023-02-13T03:02:01;102271.28;;;5.24;100.00
29569;BME280;16501;51.462;14.346;2023-02-13T03:04:50;102262.50;;;5.18;100.00
29569;BME280;16501;51.462;14.346;2023-02-13T03:07:36;102267.28;;;5.21;100.00
29569;BME280;16501;51.462;14.346;2023-02-13T03:10:05;102272.88;;;5.25;100.00
29569;BME280;16501;51.462;14.346;2023-02-13T03:13:12;102258.56;;;5.23;100.00
29569;BME280;16501;51.462;14.346;2023-02-13T03:15:46;102264.16;;;5.26;100.00
29569;BME280;16501;51.462;14.346;2023-02-13T03:18:36;102210.63;;;4.85;100.00
29569;BME280;16501;51.462;14.346;2023-02-13T03:21:45;102260.94;;;5.21;100.00
29569;BME280;16501;51.462;14.346;2023-02-13T03:31:06;102272.84;;;5.18;100.00
29569;BME280;16501;51.462;14.346;2023-02-13T03:36:30;102275.25;;;5.23;100.00
29569;BME280;16501;51.462;14.346;2023-02-13T03:41:54;102257.66;;;5.08;100.00
29569;BME280;16501;51.462;14.346;2023-02-13T03:45:01;102264.91;;;5.20;100.00
29569;BME280;16501;51.462;14.346;2023-02-13T03:47:50;102276.03;;;5.23;100.00
29569;BME280;16501;51.462;14.346;2023-02-13T03:50:17;102270.88;;;5.22;100.00
29569;BME280;16501;51.462;14.346;2023-02-13T03:52:57;102268.09;;;5.22;100.00
29569;BME280;16501;51.462;14.346;2023-02-13T03:55:31;102208.97;;;4.77;100.00
29569;BME280;16501;51.462;14.346;2023-02-13T03:58:22;102268.44;;;5.17;100.00
29569;BME280;16501;51.462;14.346;2023-02-13T04:01:08;102263.25;;;5.12;100.00
29569;BME280;16501;51.462;14.346;2023-02-13T04:03:47;102278.41;;;5.21;100.00
29569;BME280;16501;51.462;14.346;2023-02-13T04:06:18;102269.63;;;5.12;100.00
29569;BME280;16501;51.462;14.346;2023-02-13T04:08:45;102257.66;;;5.08;100.00
29569;BME280;16501;51.462;14.346;2023-02-13T04:11:25;102249.66;;;4.99;100.00
29569;BME280;16501;51.462;14.346;2023-02-13T04:14:00;102260.03;;;5.06;100.00
29569;BME280;16501;51.462;14.346;2023-02-13T04:16:37;102277.63;;;5.21;100.00
29569;BME280;16501;51.462;14.346;2023-02-13T04:19:05;102284.75;;;5.18;100.00
29569;BME280;16501;51.462;14.346;2023-02-13T04:21:36;102272.00;;;5.17;100.00
29569;BME280;16501;51.462;14.346;2023-02-13T04:24:02;102258.88;;;5.10;100.00
29569;BME280;16501;51.462;14.346;2023-02-13T04:26:38;102274.44;;;5.22;100.00
29569;BME280;16501;51.462;14.346;2023-02-13T04:29:05;102232.91;;;4.92;100.00
29569;BME280;16501;51.462;14.346;2023-02-13T04:31:30;102268.00;;;5.07;100.00
29569;BME280;16501;51.462;14.346;2023-02-13T04:33:56;102262.84;;;5.13;100.00
29569;BME280;16501;51.462;14.346;2023-02-13T04:36:21;102282.00;;;5.22;100.00
29569;BME280;16501;51.462;14.346;2023-02-13T04:38:46;102253.66;;;5.02;100.00
29569;BME280;16501;51.462;14.346;2023-02-13T04:41:12;102235.34;;;4.97;100.00
29569;BME280;16501;51.462;14.346;2023-02-13T04:43:37;102239.31;;;5.00;100.00
29569;BME280;16501;51.462;14.346;2023-02-13T04:46:02;102249.34;;;5.12;100.00
29569;BME280;16501;51.462;14.346;2023-02-13T04:48:28;102271.25;;;5.20;100.00
29569;BME280;16501;51.462;14.346;2023-02-13T04:50:53;102254.50;;;5.09;100.00
29569;BME280;16501;51.462;14.346;2023-02-13T04:53:18;102254.09;;;5.07;100.00
29569;BME280;16501;51.462;14.346;2023-02-13T04:55:45;102270.47;;;5.20;100.00
29569;BME280;16501;51.462;14.346;2023-02-13T04:58:10;102250.94;;;5.09;100.00
29569;BME280;16501;51.462;14.346;2023-02-13T05:00:35;102269.22;;;5.17;100.00
29569;BME280;16501;51.462;14.346;2023-02-13T05:03:09;102264.88;;;5.16;100.00
29569;BME280;16501;51.462;14.346;2023-02-13T05:05:35;102270.03;;;5.14;100.00
29569;BME280;16501;51.462;14.346;2023-02-13T05:08:00;102212.06;;;4.68;100.00
29569;BME280;16501;51.462;14.346;2023-02-13T05:10:27;102266.03;;;5.12;100.00
29569;BME280;16501;51.462;14.346;2023-02-13T05:12:52;102272.44;;;5.16;100.00
29569;BME280;16501;51.462;14.346;2023-02-13T05:15:18;102266.44;;;5.17;100.00
29569;BME280;16501;51.462;14.346;2023-02-13T05:17:44;102262.44;;;5.11;100.00
29569;BME280;16501;51.462;14.346;2023-02-13T05:20:11;102264.84;;;5.13;100.00
29569;BME280;16501;51.462;14.346;2023-02-13T05:22:37;102264.44;;;5.10;100.00
29569;BME280;16501;51.462;14.346;2023-02-13T05:25:26;102252.44;;;4.99;100.00
29569;BME280;16501;51.462;14.346;2023-02-13T05:27:51;102260.84;;;5.10;100.00
29569;BME280;16501;51.462;14.346;2023-02-13T05:30:18;102274.78;;;5.14;100.00
29569;BME280;16501;51.462;14.346;2023-02-13T05:32:43;102279.94;;;5.15;100.00
29569;BME280;16501;51.462;14.346;2023-02-13T05:35:08;102244.44;;;4.94;100.00
29569;BME280;16501;51.462;14.346;2023-02-13T05:37:34;102287.50;;;5.15;100.00
29569;BME280;16501;51.462;14.346;2023-02-13T05:39:59;102269.53;;;5.05;100.00
29569;BME280;16501;51.462;14.346;2023-02-13T05:42:24;102279.91;;;5.08;100.00
29569;BME280;16501;51.462;14.346;2023-02-13T05:44:50;102293.41;;;5.09;100.00
29569;BME280;16501;51.462;14.346;2023-02-13T05:47:17;102266.31;;;4.96;100.00
29569;BME280;16501;51.462;14.346;2023-02-13T05:49:43;102291.88;;;5.12;100.00
29569;BME280;16501;51.462;14.346;2023-02-13T05:52:09;102293.84;;;5.12;100.00
29569;BME280;16501;51.462;14.346;2023-02-13T05:54:34;102257.47;;;4.83;100.00
29569;BME280;16501;51.462;14.346;2023-02-13T05:57:00;102277.31;;;4.81;100.00
29569;BME280;16501;51.462;14.346;2023-02-13T05:59:26;102290.63;;;5.06;100.00
29569;BME280;16501;51.462;14.346;2023-02-13T06:01:51;102289.81;;;5.05;100.00
29569;BME280;16501;51.462;14.346;2023-02-13T06:04:17;102288.22;;;5.04;100.00
29569;BME280;16501;51.462;14.346;2023-02-13T06:06:42;102305.38;;;5.14;100.00
29569;BME280;16501;51.462;14.346;2023-02-13T06:09:10;102299.00;;;5.13;100.00
29569;BME280;16501;51.462;14.346;2023-02-13T06:11:36;102303.00;;;5.12;100.00
29569;BME280;16501;51.462;14.346;2023-02-13T06:14:01;102292.59;;;5.05;100.00
29569;BME280;16501;51.462;14.346;2023-02-13T06:16:26;102307.31;;;5.09;100.00
29569;BME280;16501;51.462;14.346;2023-02-13T06:18:52;102306.16;;;5.10;100.00
29569;BME280;16501;51.462;14.346;2023-02-13T06:21:17;102304.56;;;5.13;100.00
29569;BME280;16501;51.462;14.346;2023-02-13T06:23:45;102297.75;;;5.03;100.00
29569;BME280;16501;51.462;14.346;2023-02-13T06:26:11;102314.91;;;5.13;100.00
29569;BME280;16501;51.462;14.346;2023-02-13T06:28:36;102295.69;;;4.93;100.00
29569;BME280;16501;51.462;14.346;2023-02-13T06:31:01;102315.25;;;5.07;100.00
29569;BME280;16501;51.462;14.346;2023-02-13T06:33:27;102300.81;;;4.91;100.00
29569;BME280;16501;51.462;14.346;2023-02-13T06:35:52;102270.47;;;4.71;100.00
29569;BME280;16501;51.462;14.346;2023-02-13T06:38:18;102317.28;;;5.10;100.00
29569;BME280;16501;51.462;14.346;2023-02-13T06:40:45;102318.50;;;5.17;100.00
29569;BME280;16501;51.462;14.346;2023-02-13T06:43:11;102306.94;;;5.11;100.00
29569;BME280;16501;51.462;14.346;2023-02-13T06:45:36;102297.84;;;5.14;100.00
29569;BME280;16501;51.462;14.346;2023-02-13T06:48:02;102300.22;;;5.12;100.00
29569;BME280;16501;51.462;14.346;2023-02-13T06:50:27;102281.28;;;4.84;100.00
29569;BME280;16501;51.462;14.346;2023-02-13T06:52:52;102320.53;;;5.20;100.00
29569;BME280;16501;51.462;14.346;2023-02-13T06:55:18;102331.66;;;5.20;100.00
29569;BME280;16501;51.462;14.346;2023-02-13T06:57:44;102321.69;;;5.19;100.00
29569;BME280;16501;51.462;14.346;2023-02-13T07:00:10;102336.03;;;5.21;100.00
29569;BME280;16501;51.462;14.346;2023-02-13T07:02:39;102337.63;;;5.22;100.00
29569;BME280;16501;51.462;14.346;2023-02-13T07:05:05;102334.75;;;5.11;100.00
29569;BME280;16501;51.462;14.346;2023-02-13T07:07:35;102337.16;;;5.13;100.00
29569;BME280;16501;51.462;14.346;2023-02-13T07:10:02;102343.38;;;4.99;100.00
29569;BME280;16501;51.462;14.346;2023-02-13T07:12:28;102348.22;;;5.05;100.00
29569;BME280;16501;51.462;14.346;2023-02-13T07:14:53;102355.34;;;5.06;100.00
29569;BME280;16501;51.462;14.346;2023-02-13T07:17:18;102349.00;;;5.06;100.00
29569;BME280;16501;51.462;14.346;2023-02-13T07:19:44;102360.50;;;5.04;100.00
29569;BME280;16501;51.462;14.346;2023-02-13T07:22:09;102339.34;;;4.93;100.00
29569;BME280;16501;51.462;14.346;2023-02-13T07:24:34;102352.56;;;5.06;100.00
29569;BME280;16501;51.462;14.346;2023-02-13T07:27:02;102346.56;;;5.01;100.00
29569;BME280;16501;51.462;14.346;2023-02-13T07:29:28;102349.34;;;5.01;100.00
29569;BME280;16501;51.462;14.346;2023-02-13T07:31:53;102353.81;;;5.09;100.00
29569;BME280;16501;51.462;14.346;2023-02-13T07:34:18;102352.56;;;5.06;100.00
29569;BME280;16501;51.462;14.346;2023-02-13T07:36:44;102282.25;;;4.58;100.00
29569;BME280;16501;51.462;14.346;2023-02-13T07:39:09;102341.75;;;4.94;100.00
29569;BME280;16501;51.462;14.346;2023-02-13T07:41:36;102357.03;;;5.15;100.00
29569;BME280;16501;51.462;14.346;2023-02-13T07:44:01;102365.38;;;5.15;100.00
29569;BME280;16501;51.462;14.346;2023-02-13T07:46:26;102173.28;;;3.93;100.00
29569;BME280;16501;51.462;14.346;2023-02-13T07:48:53;102352.19;;;5.08;100.00
29569;BME280;16501;51.462;14.346;2023-02-13T07:51:19;102323.03;;;4.91;100.00
29569;BME280;16501;51.462;14.346;2023-02-13T07:53:44;102360.97;;;5.14;100.00
29569;BME280;16501;51.462;14.346;2023-02-13T07:56:10;102333.50;;;5.05;100.00
29569;BME280;16501;51.462;14.346;2023-02-13T07:58:36;102361.47;;;5.23;100.00
29569;BME280;16501;51.462;14.346;2023-02-13T08:01:06;102333.91;;;5.03;100.00
29569;BME280;16501;51.462;14.346;2023-02-13T08:03:32;102359.88;;;5.22;100.00
29569;BME280;16501;51.462;14.346;2023-02-13T08:05:57;102348.28;;;5.13;100.00
29569;BME280;16501;51.462;14.346;2023-02-13T08:08:23;102360.66;;;5.22;100.00
29569;BME280;16501;51.462;14.346;2023-02-13T08:10:48;102356.28;;;5.21;100.00
29569;BME280;16501;51.462;14.346;2023-02-13T08:13:32;102348.72;;;5.18;100.00
29569;BME280;16501;51.462;14.346;2023-02-13T08:15:58;102361.09;;;5.24;100.00
29569;BME280;16501;51.462;14.346;2023-02-13T08:18:23;102359.50;;;5.27;100.00
29569;BME280;16501;51.462;14.346;2023-02-13T08:20:48;102355.53;;;5.24;100.00
29569;BME280;16501;51.462;14.346;2023-02-13T08:23:15;102349.47;;;5.15;100.00
29569;BME280;16501;51.462;14.346;2023-02-13T08:25:42;102371.44;;;5.27;100.00
29569;BME280;16501;51.462;14.346;2023-02-13T08:28:07;102374.19;;;5.24;100.00
29569;BME280;16501;51.462;14.346;2023-02-13T08:30:32;102376.16;;;5.23;100.00
29569;BME280;16501;51.462;14.346;2023-02-13T08:32:58;102372.19;;;5.21;100.00
29569;BME280;16501;51.462;14.346;2023-02-13T08:35:23;102367.81;;;5.20;100.00
29569;BME280;16501;51.462;14.346;2023-02-13T08:37:52;102378.97;;;5.27;100.00
29569;BME280;16501;51.462;14.346;2023-02-13T08:40:17;102381.75;;;5.27;100.00
29569;BME280;16501;51.462;14.346;2023-02-13T08:42:43;102376.19;;;5.27;100.00
29569;BME280;16501;51.462;14.346;2023-02-13T08:45:08;102374.66;;;5.29;100.00
29569;BME280;16501;51.462;14.346;2023-02-13T08:47:35;102310.75;;;4.92;100.00
29569;BME280;16501;51.462;14.346;2023-02-13T08:50:01;102375.88;;;5.36;100.00
29569;BME280;16501;51.462;14.346;2023-02-13T08:52:27;102379.41;;;5.33;100.00
29569;BME280;16501;51.462;14.346;2023-02-13T08:54:53;102381.06;;;5.37;100.00
29569;BME280;16501;51.462;14.346;2023-02-13T08:57:19;102380.28;;;5.40;100.00
29569;BME280;16501;51.462;14.346;2023-02-13T08:59:44;102344.28;;;5.14;100.00
29569;BME280;16501;51.462;14.346;2023-02-13T09:02:10;102395.81;;;5.45;100.00
29569;BME280;16501;51.462;14.346;2023-02-13T09:04:35;102332.69;;;5.04;100.00
29569;BME280;16501;51.462;14.346;2023-02-13T09:07:01;102397.78;;;5.41;100.00
29569;BME280;16501;51.462;14.346;2023-02-13T09:09:26;102391.03;;;5.42;100.00
29569;BME280;16501;51.462;14.346;2023-02-13T09:11:51;102386.66;;;5.41;100.00
29569;BME280;16501;51.462;14.346;2023-02-13T09:14:20;102367.09;;;5.30;100.00
29569;BME280;16501;51.462;14.346;2023-02-13T09:16:46;102390.25;;;5.45;100.00
29569;BME280;16501;51.462;14.346;2023-02-13T09:19:12;102385.84;;;5.40;100.00
29569;BME280;16501;51.462;14.346;2023-02-13T09:21:37;102354.69;;;5.20;100.00
29569;BME280;16501;51.462;14.346;2023-02-13T09:24:06;102381.44;;;5.36;100.00
29569;BME280;16501;51.462;14.346;2023-02-13T09:26:33;102394.97;;;5.37;100.00
29569;BME280;16501;51.462;14.346;2023-02-13T09:28:58;102400.16;;;5.39;100.00
29569;BME280;16501;51.462;14.346;2023-02-13T09:31:24;102400.53;;;5.37;100.00
29569;BME280;16501;51.462;14.346;2023-02-13T09:33:50;102390.56;;;5.36;100.00
29569;BME280;16501;51.462;14.346;2023-02-13T09:36:21;102393.44;;;5.43;100.00
29569;BME280;16501;51.462;14.346;2023-02-13T09:38:52;102369.06;;;5.26;100.00
29569;BME280;16501;51.462;14.346;2023-02-13T09:41:48;102397.81;;;5.44;100.00
29569;BME280;16501;51.462;14.346;2023-02-13T09:44:36;102383.09;;;5.44;100.00
29569;BME280;16501;51.462;14.346;2023-02-13T09:47:13;102392.28;;;5.52;100.00
29569;BME280;16501;51.462;14.346;2023-02-13T09:49:47;102392.66;;;5.46;100.00
29569;BME280;16501;51.462;14.346;2023-02-13T09:52:14;102382.31;;;5.43;100.00
29569;BME280;16501;51.462;14.346;2023-02-13T09:54:41;102367.91;;;5.34;100.00
29569;BME280;16501;51.462;14.346;2023-02-13T09:57:15;102407.06;;;5.56;100.00
29569;BME280;16501;51.462;14.346;2023-02-13T10:10:50;102406.97;;;5.48;100.00
29569;BME280;16501;51.462;14.346;2023-02-13T10:15:53;102405.03;;;5.53;100.00
29569;BME280;16501;51.462;14.346;2023-02-13T10:18:28;102373.81;;;5.29;100.00
29569;BME280;16501;51.462;14.346;2023-02-13T10:21:01;102401.38;;;5.45;100.00
29569;BME280;16501;51.462;14.346;2023-02-13T10:23:35;102409.81;;;5.52;100.00
29569;BME280;16501;51.462;14.346;2023-02-13T10:26:06;102397.03;;;5.47;100.00
29569;BME280;16501;51.462;14.346;2023-02-13T10:28:56;102399.91;;;5.58;100.00
29569;BME280;16501;51.462;14.346;2023-02-13T10:31:58;102377.56;;;5.47;100.00
29569;BME280;16501;51.462;14.346;2023-02-13T10:34:26;102367.19;;;5.44;100.00
29569;BME280;16501;51.462;14.346;2023-02-13T10:36:54;102381.53;;;5.46;100.00
29569;BME280;16501;51.462;14.346;2023-02-13T10:39:28;102389.56;;;5.59;100.00
29569;BME280;16501;51.462;14.346;2023-02-13T10:42:20;102389.19;;;5.60;100.00
29569;BME280;16501;51.462;14.346;2023-02-13T11:02:22;102345.28;;;5.39;100.00
29569;BME280;16501;51.462;14.346;2023-02-13T11:04:58;102352.94;;;5.53;100.00
29569;BME280;16501;51.462;14.346;2023-02-13T11:07:25;102358.09;;;5.51;100.00
29569;BME280;16501;51.462;14.346;2023-02-13T11:09:54;102361.25;;;5.46;100.00
29569;BME280;16501;51.462;14.346;2023-02-13T11:12:31;102355.31;;;5.51;100.00
29569;BME280;16501;51.462;14.346;2023-02-13T11:15:02;102327.78;;;5.32;100.00
29569;BME280;16501;51.462;14.346;2023-02-13T11:17:30;102313.84;;;5.28;100.00
29569;BME280;16501;51.462;14.346;2023-02-13T11:19:59;102329.81;;;5.38;100.00
29569;BME280;16501;51.462;14.346;2023-02-13T11:22:39;102346.50;;;5.38;100.00
29569;BME280;16501;51.462;14.346;2023-02-13T11:25:24;102342.53;;;5.43;100.00
29569;BME280;16501;51.462;14.346;2023-02-13T11:27:55;102344.53;;;5.42;100.00
29569;BME280;16501;51.462;14.346;2023-02-13T11:30:34;102344.53;;;5.42;100.00
29569;BME280;16501;51.462;14.346;2023-02-13T11:35:44;102318.16;;;5.22;100.00
29569;BME280;16501;51.462;14.346;2023-02-13T11:40:46;102302.19;;;5.15;100.00
29569;BME280;16501;51.462;14.346;2023-02-13T11:43:23;102329.22;;;5.15;100.00
29569;BME280;16501;51.462;14.346;2023-02-13T11:46:06;102334.13;;;5.32;100.00
29569;BME280;16501;51.462;14.346;2023-02-13T11:48:33;102298.97;;;5.09;100.00
29569;BME280;16501;51.462;14.346;2023-02-13T11:50:59;102330.16;;;5.29;100.00
29569;BME280;16501;51.462;14.346;2023-02-13T11:53:30;102336.09;;;5.28;100.00
29569;BME280;16501;51.462;14.346;2023-02-13T11:56:11;102330.91;;;5.26;100.00
29569;BME280;16501;51.462;14.346;2023-02-13T11:58:37;102334.09;;;5.28;100.00
29569;BME280;16501;51.462;14.346;2023-02-13T12:03:43;102332.50;;;5.31;100.00
29569;BME280;16501;51.462;14.346;2023-02-13T12:06:20;102324.97;;;5.28;100.00
29569;BME280;16501;51.462;14.346;2023-02-13T12:08:47;102337.28;;;5.31;100.00
29569;BME280;16501;51.462;14.346;2023-02-13T12:11:34;102326.56;;;5.33;100.00
29569;BME280;16501;51.462;14.346;2023-02-13T12:14:02;102311.06;;;5.28;100.00
29569;BME280;16501;51.462;14.346;2023-02-13T12:16:31;102297.00;;;5.10;100.00
29569;BME280;16501;51.462;14.346;2023-02-13T12:19:02;102330.94;;;5.30;100.00
29569;BME280;16501;51.462;14.346;2023-02-13T12:24:14;102320.59;;;5.31;100.00
29569;BME280;16501;51.462;14.346;2023-02-13T12:26:44;102276.75;;;5.13;100.00
29569;BME280;16501;51.462;14.346;2023-02-13T12:38:01;102288.28;;;5.12;100.00
29569;BME280;16501;51.462;14.346;2023-02-13T12:40:52;102241.59;;;4.83;100.00
29569;BME280;16501;51.462;14.346;2023-02-13T12:43:49;102305.47;;;5.24;100.00
29569;BME280;16501;51.462;14.346;2023-02-13T12:51:40;102292.72;;;5.23;100.00
29569;BME280;16501;51.462;14.346;2023-02-13T13:03:14;102285.66;;;5.33;100.00
29569;BME280;16501;51.462;14.346;2023-02-13T13:06:01;102291.63;;;5.35;100.00
29569;BME280;16501;51.462;14.346;2023-02-13T13:08:38;102295.19;;;5.36;100.00
29569;BME280;16501;51.462;14.346;2023-02-13T13:22:04;102306.34;;;5.39;100.00
29569;BME280;16501;51.462;14.346;2023-02-13T13:27:29;102306.34;;;5.39;100.00
29569;BME280;16501;51.462;14.346;2023-02-13T13:30:12;102301.63;;;5.43;100.00
29569;BME280;16501;51.462;14.346;2023-02-13T13:32:39;102306.00;;;5.44;100.00
29569;BME280;16501;51.462;14.346;2023-02-13T13:35:13;102273.25;;;5.23;100.00
29569;BME280;16501;51.462;14.346;2023-02-13T13:37:54;102303.25;;;5.52;100.00
29569;BME280;16501;51.462;14.346;2023-02-13T13:40:37;102310.84;;;5.58;100.00
29569;BME280;16501;51.462;14.346;2023-02-13T13:43:17;102296.94;;;5.58;100.00
29569;BME280;16501;51.462;14.346;2023-02-13T13:51:15;102266.28;;;5.51;100.00
29569;BME280;16501;51.462;14.346;2023-02-13T14:07:39;102278.31;;;5.66;100.00
29569;BME280;16501;51.462;14.346;2023-02-13T14:28:37;102283.81;;;5.59;100.00
29569;BME280;16501;51.462;14.346;2023-02-13T14:31:29;102271.13;;;5.61;100.00
29569;BME280;16501;51.462;14.346;2023-02-13T14:34:02;102264.75;;;5.61;100.00
29569;BME280;16501;51.462;14.346;2023-02-13T14:36:37;102254.81;;;5.60;100.00
29569;BME280;16501;51.462;14.346;2023-02-13T14:44:30;102261.53;;;5.59;100.00
29569;BME280;16501;51.462;14.346;2023-02-13T14:46:57;102237.25;;;5.48;100.00
29569;BME280;16501;51.462;14.346;2023-02-13T14:49:35;102249.19;;;5.49;100.00
29569;BME280;16501;51.462;14.346;2023-02-13T14:52:06;102244.81;;;5.52;100.00
29569;BME280;16501;51.462;14.346;2023-02-13T14:54:37;102236.03;;;5.46;100.00
29569;BME280;16501;51.462;14.346;2023-02-13T14:57:16;102239.66;;;5.54;100.00
29569;BME280;16501;51.462;14.346;2023-02-13T14:59:46;102208.13;;;5.24;100.00
29569;BME280;16501;51.462;14.346;2023-02-13T15:02:27;102236.06;;;5.50;100.00
29569;BME280;16501;51.462;14.346;2023-02-13T15:05:29;102237.66;;;5.51;100.00
29569;BME280;16501;51.462;14.346;2023-02-13T15:08:16;102246.41;;;5.49;100.00
29569;BME280;16501;51.462;14.346;2023-02-13T15:10:49;102238.00;;;5.38;100.00
29569;BME280;16501;51.462;14.346;2023-02-13T15:13:22;102249.59;;;5.51;100.00
29569;BME280;16501;51.462;14.346;2023-02-13T15:15:59;102249.22;;;5.53;100.00
29569;BME280;16501;51.462;14.346;2023-02-13T15:18:58;102240.06;;;5.52;100.00
29569;BME280;16501;51.462;14.346;2023-02-13T15:21:24;102234.44;;;5.45;100.00
29569;BME280;16501;51.462;14.346;2023-02-13T15:23:54;102244.78;;;5.48;100.00
29569;BME280;16501;51.462;14.346;2023-02-13T15:26:23;102234.44;;;5.45;100.00
29569;BME280;16501;51.462;14.346;2023-02-13T15:29:11;102250.75;;;5.50;100.00
29569;BME280;16501;51.462;14.346;2023-02-13T15:31:37;102235.25;;;5.45;100.00
29569;BME280;16501;51.462;14.346;2023-02-13T15:34:03;102242.00;;;5.48;100.00
29569;BME280;16501;51.462;14.346;2023-02-13T15:36:38;102230.88;;;5.48;100.00